Time;durP1;ratioP1;P1;durP2;ratioP2;P2;SDS_P1;SDS_P2;PMS_P1;PMS_P2;Temp;Humidity;BMP_temperature;BMP_pressure;BME280_temperature;BME280_humidity;BME280_pressure;Samples;Min_cycle;Max_cycle;Signal;HPM_P1;HPM_P2
2022/06/14 00:01:39;;;;;;;8.20;3.60;;;;;;;;;;4897040;29;20033;-91
2022/06/14 00:04:05;;;;;;;10.30;3.60;;;;;;;;;;4915508;29;20047;-92
2022/06/14 00:06:33;;;;;;;10.48;3.97;;;;;;;;;;4937232;29;20023;-92
2022/06/14 00:08:59;;;;;;;9.63;3.30;;;;;;;;;;4937139;29;20028;-92
2022/06/14 00:11:27;;;;;;;11.05;3.75;;;;;;;;;;4935437;29;20038;-91
2022/06/14 00:13:56;;;;;;;7.18;3.17;;;;;;;;;;4936432;29;20031;-92
2022/06/14 00:16:26;;;;;;;12.50;4.05;;;;;;;;;;4936670;29;20055;-91
2022/06/14 00:18:56;;;;;;;9.20;4.20;;;;;;;;;;4935584;29;20046;-91
2022/06/14 00:21:25;;;;;;;12.27;3.38;;;;;;;;;;4935296;29;20036;-91
2022/06/14 00:23:51;;;;;;;8.82;4.22;;;;;;;;;;4935047;29;20056;-92
2022/06/14 00:26:20;;;;;;;7.93;4.30;;;;;;;;;;4936736;29;20035;-90
2022/06/14 00:28:51;;;;;;;10.25;3.90;;;;;;;;;;4935601;29;20031;-92
2022/06/14 00:31:30;;;;;;;13.57;4.07;;;;;;;;;;4936228;29;20494;-91
2022/06/14 00:34:01;;;;;;;10.65;3.90;;;;;;;;;;4937323;29;20032;-91
2022/06/14 00:39:49;;;;;;;8.77;3.65;;;;;;;;;;4936650;29;20035;-91
2022/06/14 00:42:28;;;;;;;7.70;3.67;;;;;;;;;;4936490;29;20055;-91
2022/06/14 00:45:12;;;;;;;8.43;3.78;;;;;;;;;;4936566;29;20028;-90
2022/06/14 00:47:50;;;;;;;7.60;3.97;;;;;;;;;;4934273;29;20028;-91
2022/06/14 00:53:26;;;;;;;18.75;4.07;;;;;;;;;;4932007;29;20105;-91
2022/06/14 00:55:56;;;;;;;9.07;3.78;;;;;;;;;;4932681;29;20078;-89
2022/06/14 00:58:37;;;;;;;6.95;3.58;;;;;;;;;;4936138;29;20040;-92
2022/06/14 01:01:10;;;;;;;9.40;4.30;;;;;;;;;;4935993;29;20032;-90
2022/06/14 01:03:55;;;;;;;7.18;3.78;;;;;;;;;;4935759;29;20023;-91
2022/06/14 01:06:41;;;;;;;;;;;;;;;;;;;;;
2022/06/14 01:09:14;;;;;;;7.05;3.40;;;;;;;;;;4931856;29;20038;-90
2022/06/14 01:11:49;;;;;;;10.05;3.40;;;;;;;;;;4935754;29;20027;-91
2022/06/14 01:14:36;;;;;;;6.63;3.65;;;;;;;;;;4935446;29;20042;-90
2022/06/14 01:17:09;;;;;;;6.22;3.75;;;;;;;;;;4934463;29;20478;-90
2022/06/14 01:19:59;;;;;;;9.25;3.92;;;;;;;;;;4934242;29;20106;-91
2022/06/14 01:27:44;;;;;;;6.82;4.03;;;;;;;;;;1022816;23;21676;-87
2022/06/14 01:30:36;;;;;;;7.03;4.25;;;;;;;;;;4950213;28;20516;-90
2022/06/14 01:33:31;;;;;;;6.07;3.38;;;;;;;;;;4935955;28;20031;-90
2022/06/14 01:36:27;;;;;;;10.18;3.70;;;;;;;;;;4919177;29;20035;-90
2022/06/14 01:44:51;;;;;;;9.32;3.45;;;;;;;;;;4933408;29;20029;-90
2022/06/14 01:47:43;;;;;;;4.57;3.00;;;;;;;;;;4949859;29;20075;-91
2022/06/14 01:59:30;;;;;;;;;;;;;;;;;;;;;
2022/06/14 02:05:01;;;;;;;6.87;3.80;;;;;;;;;;4939465;29;20167;-89
2022/06/14 02:07:55;;;;;;;6.73;3.37;;;;;;;;;;4946000;29;20115;-91
2022/06/14 02:14:06;;;;;;;;;;;;;;;;;;;;;
2022/06/14 02:17:01;;;;;;;6.57;3.38;;;;;;;;;;4941556;29;20099;-90
2022/06/14 02:19:59;;;;;;;9.20;3.15;;;;;;;;;;4928478;29;20047;-90
2022/06/14 02:22:29;;;;;;;6.28;3.05;;;;;;;;;;4939016;29;20058;-89
2022/06/14 02:25:08;;;;;;;;;;;;;;;;;;;;;
2022/06/14 02:28:05;;;;;;;7.57;3.13;;;;;;;;;;4937553;29;20513;-90
2022/06/14 02:30:42;;;;;;;6.88;3.42;;;;;;;;;;4952710;29;20032;-89
2022/06/14 02:33:32;;;;;;;6.50;3.00;;;;;;;;;;4953778;29;20036;-90
2022/06/14 02:36:27;;;;;;;6.55;2.70;;;;;;;;;;4954320;28;20036;-90
2022/06/14 02:39:26;;;;;;;;;;;;;;;;;;;;;
2022/06/14 02:42:07;;;;;;;4.40;2.53;;;;;;;;;;4937629;29;20023;-88
2022/06/14 02:44:40;;;;;;;5.90;2.85;;;;;;;;;;4938517;28;20099;-87
2022/06/14 02:47:28;;;;;;;4.40;2.70;;;;;;;;;;4957285;29;20069;-91
2022/06/14 02:53:03;;;;;;;3.53;2.40;;;;;;;;;;4935840;29;20214;-88
2022/06/14 03:01:28;;;;;;;5.60;2.65;;;;;;;;;;4938531;29;20040;-89
2022/06/14 03:04:10;;;;;;;2.50;2.30;;;;;;;;;;4952784;29;20090;-86
2022/06/14 03:09:43;;;;;;;3.50;2.35;;;;;;;;;;4938266;29;20035;-88
2022/06/14 03:15:32;;;;;;;6.75;3.22;;;;;;;;;;4938507;29;20540;-90
2022/06/14 03:18:16;;;;;;;4.78;2.78;;;;;;;;;;4938236;29;20031;-87
2022/06/14 03:21:08;;;;;;;6.13;3.10;;;;;;;;;;4952714;29;20105;-89
2022/06/14 03:33:15;;;;;;;7.57;3.10;;;;;;;;;;4922864;29;20035;-90
2022/06/14 03:36:18;;;;;;;6.53;3.10;;;;;;;;;;4936991;29;20111;-89
2022/06/14 03:39:18;;;;;;;5.57;3.00;;;;;;;;;;4964522;28;20229;-89
2022/06/14 03:50:53;;;;;;;9.60;2.92;;;;;;;;;;4918531;29;20027;-90
2022/06/14 03:53:38;;;;;;;4.80;3.47;;;;;;;;;;4962047;23;20051;-87
2022/06/14 03:56:30;;;;;;;5.85;3.05;;;;;;;;;;4957438;28;20027;-87
2022/06/14 03:59:15;;;;;;;4.65;2.50;;;;;;;;;;4970630;28;20035;-86
2022/06/14 04:01:47;;;;;;;5.97;2.97;;;;;;;;;;4962900;28;20143;-86
2022/06/14 04:04:20;;;;;;;4.43;2.50;;;;;;;;;;4979668;28;20062;-87
2022/06/14 04:07:05;;;;;;;4.53;3.00;;;;;;;;;;4980587;28;20409;-87
2022/06/14 04:09:50;;;;;;;10.63;2.80;;;;;;;;;;4980887;28;20094;-87
2022/06/14 04:12:15;;;;;;;2.97;2.67;;;;;;;;;;4978016;28;20029;-86
2022/06/14 04:14:41;;;;;;;6.00;3.03;;;;;;;;;;4978374;28;20082;-87
2022/06/14 04:17:16;;;;;;;5.45;2.75;;;;;;;;;;4979574;28;20033;-87
2022/06/14 04:20:03;;;;;;;8.68;2.90;;;;;;;;;;4979467;28;20079;-86
2022/06/14 04:22:35;;;;;;;7.80;3.08;;;;;;;;;;4977837;28;20081;-87
2022/06/14 04:25:08;;;;;;;3.75;2.70;;;;;;;;;;4978646;28;20019;-87
2022/06/14 04:27:38;;;;;;;4.07;2.67;;;;;;;;;;4979663;28;20435;-86
2022/06/14 04:30:22;;;;;;;5.27;2.80;;;;;;;;;;4976654;28;20022;-87
2022/06/14 04:32:48;;;;;;;5.47;2.58;;;;;;;;;;4975391;28;20026;-87
2022/06/14 04:35:27;;;;;;;2.83;2.15;;;;;;;;;;4973824;28;20042;-87
2022/06/14 04:37:55;;;;;;;3.78;2.75;;;;;;;;;;4973906;28;20037;-87
2022/06/14 04:40:32;;;;;;;8.95;2.45;;;;;;;;;;4973440;28;20030;-87
2022/06/14 04:43:04;;;;;;;4.57;2.92;;;;;;;;;;4974098;28;20031;-87
2022/06/14 04:45:41;;;;;;;2.97;2.33;;;;;;;;;;4973922;28;20121;-87
2022/06/14 04:48:07;;;;;;;6.53;2.80;;;;;;;;;;4975232;28;20570;-85
2022/06/14 04:50:37;;;;;;;4.82;2.80;;;;;;;;;;4975551;28;20026;-85
2022/06/14 04:53:07;;;;;;;4.28;2.20;;;;;;;;;;4975471;28;20077;-84
2022/06/14 04:55:43;;;;;;;4.50;2.63;;;;;;;;;;4970868;28;20093;-84
2022/06/14 04:58:11;;;;;;;6.97;2.70;;;;;;;;;;4972872;28;20058;-86
2022/06/14 05:00:40;;;;;;;6.93;2.20;;;;;;;;;;4973160;28;20535;-84
2022/06/14 05:03:10;;;;;;;8.60;2.60;;;;;;;;;;4973609;28;20042;-84
2022/06/14 05:05:41;;;;;;;10.38;2.70;;;;;;;;;;4973645;28;20030;-85
2022/06/14 05:08:07;;;;;;;;;;;;;;;;;;4966643;28;20026;-85
2022/06/14 05:11:09;;;;;;;9.57;2.40;;;;;;;;;;4967798;28;19906;-85
2022/06/14 05:13:35;;;;;;;;;;;;;;;;;;4933055;29;20095;-84
2022/06/14 05:16:09;;;;;;;6.45;2.50;;;;;;;;;;4975129;28;20352;-86
2022/06/14 05:18:40;;;;;;;6.47;2.42;;;;;;;;;;4973364;28;20035;-84
2022/06/14 05:21:10;;;;;;;4.47;2.55;;;;;;;;;;4963354;28;20225;-85
2022/06/14 05:23:43;;;;;;;4.88;2.50;;;;;;;;;;4971895;28;20042;-85
2022/06/14 05:26:15;;;;;;;4.88;1.95;;;;;;;;;;4972773;28;20468;-85
2022/06/14 05:29:02;;;;;;;4.43;2.45;;;;;;;;;;4967669;28;20177;-85
2022/06/14 05:31:28;;;;;;;3.35;2.47;;;;;;;;;;4972608;28;20461;-85
2022/06/14 05:34:12;;;;;;;6.28;2.50;;;;;;;;;;4966431;28;20085;-85
2022/06/14 05:36:41;;;;;;;5.75;2.00;;;;;;;;;;4974163;28;20034;-86
2022/06/14 05:39:16;;;;;;;7.22;2.20;;;;;;;;;;4974692;28;20031;-86
2022/06/14 05:41:52;;;;;;;7.97;2.20;;;;;;;;;;4966703;28;20038;-85
2022/06/14 05:44:28;;;;;;;3.80;2.15;;;;;;;;;;4976444;28;20038;-84
2022/06/14 05:46:55;;;;;;;6.57;2.40;;;;;;;;;;4976771;28;20027;-84
2022/06/14 05:49:22;;;;;;;6.30;2.45;;;;;;;;;;4976622;28;20029;-86
2022/06/14 05:51:55;;;;;;;4.70;2.40;;;;;;;;;;4978361;28;20026;-88
2022/06/14 05:54:42;;;;;;;3.70;2.13;;;;;;;;;;4980633;28;20039;-88
2022/06/14 05:57:37;;;;;;;7.60;1.70;;;;;;;;;;4973938;28;20477;-87
2022/06/14 06:00:21;;;;;;;3.35;2.10;;;;;;;;;;4954341;28;20042;-89
2022/06/14 06:02:59;;;;;;;3.80;1.85;;;;;;;;;;4973118;28;20081;-88
2022/06/14 06:05:39;;;;;;;2.67;1.60;;;;;;;;;;4972635;28;20058;-88
2022/06/14 06:08:26;;;;;;;6.68;1.90;;;;;;;;;;4972828;28;20535;-87
2022/06/14 06:11:36;;;;;;;3.55;1.85;;;;;;;;;;4971927;28;20026;-88
2022/06/14 06:14:19;;;;;;;5.25;1.60;;;;;;;;;;4952482;29;20032;-88
2022/06/14 06:26:12;;;;;;;;;;;;;;;;;;;;;
2022/06/14 06:28:58;;;;;;;2.90;1.45;;;;;;;;;;4946064;29;20043;-89
2022/06/14 06:31:30;;;;;;;5.32;1.58;;;;;;;;;;4939071;29;20464;-89
2022/06/14 06:34:10;;;;;;;3.13;1.08;;;;;;;;;;4954400;28;20032;-88
2022/06/14 06:36:56;;;;;;;10.80;1.60;;;;;;;;;;4952918;29;20132;-88
2022/06/14 06:39:43;;;;;;;8.70;1.10;;;;;;;;;;4980395;28;20047;-89
2022/06/14 06:42:22;;;;;;;3.40;1.42;;;;;;;;;;4996105;28;20031;-89
2022/06/14 06:44:48;;;;;;;3.50;1.40;;;;;;;;;;4977658;28;20043;-87
2022/06/14 06:47:17;;;;;;;2.38;1.02;;;;;;;;;;4979289;28;20105;-87
2022/06/14 06:50:04;;;;;;;2.78;1.17;;;;;;;;;;4976151;28;20377;-88
2022/06/14 06:52:45;;;;;;;2.80;1.20;;;;;;;;;;4975157;28;20030;-87
2022/06/14 06:55:34;;;;;;;5.65;1.25;;;;;;;;;;4973845;28;20170;-86
2022/06/14 06:58:09;;;;;;;4.10;1.45;;;;;;;;;;4988613;28;20093;-87
2022/06/14 07:00:35;;;;;;;3.05;1.10;;;;;;;;;;4977511;28;20044;-87
2022/06/14 07:03:04;;;;;;;5.50;1.67;;;;;;;;;;4978042;28;20031;-86
2022/06/14 07:05:30;;;;;;;1.55;1.08;;;;;;;;;;4961040;28;20556;-87
2022/06/14 07:08:02;;;;;;;4.22;1.30;;;;;;;;;;4961494;28;20047;-87
2022/06/14 07:10:50;;;;;;;3.42;1.10;;;;;;;;;;4967935;28;20077;-86
2022/06/14 07:13:24;;;;;;;7.75;1.60;;;;;;;;;;4972493;28;20038;-87
2022/06/14 07:15:53;;;;;;;2.85;1.52;;;;;;;;;;4963342;28;20038;-87
2022/06/14 07:18:19;;;;;;;6.93;1.70;;;;;;;;;;4976737;28;20037;-87
2022/06/14 07:21:02;;;;;;;4.97;1.20;;;;;;;;;;4976517;28;20033;-88
2022/06/14 07:23:28;;;;;;;4.15;1.55;;;;;;;;;;4980848;28;20031;-88
2022/06/14 07:25:57;;;;;;;5.60;1.40;;;;;;;;;;4978925;28;20019;-88
2022/06/14 07:28:42;;;;;;;3.03;1.23;;;;;;;;;;4978523;28;20026;-87
2022/06/14 07:31:11;;;;;;;9.98;1.75;;;;;;;;;;4980116;28;20022;-87
2022/06/14 07:33:49;;;;;;;3.08;1.38;;;;;;;;;;4984167;28;20026;-87
2022/06/14 07:36:27;;;;;;;4.43;1.55;;;;;;;;;;4966164;28;20039;-86
2022/06/14 07:39:06;;;;;;;;;;;;;;;;;;;;;
2022/06/14 07:41:43;;;;;;;3.45;1.30;;;;;;;;;;4955829;28;20414;-88
2022/06/14 07:44:44;;;;;;;4.97;1.27;;;;;;;;;;4966863;28;20026;-87
2022/06/14 07:47:10;;;;;;;;;;;;;;;;;;4972231;28;20023;-87
2022/06/14 07:49:45;;;;;;;3.28;1.13;;;;;;;;;;4991476;28;19945;-87
2022/06/14 07:52:18;;;;;;;6.75;1.50;;;;;;;;;;4975950;28;20023;-87
2022/06/14 07:54:46;;;;;;;2.28;1.38;;;;;;;;;;4977509;28;20023;-88
2022/06/14 07:57:12;;;;;;;6.72;1.30;;;;;;;;;;4969309;28;20023;-87
2022/06/14 07:59:44;;;;;;;3.22;2.15;;;;;;;;;;4978173;28;20496;-87
2022/06/14 08:02:19;;;;;;;4.70;1.25;;;;;;;;;;4967697;28;20034;-87
2022/06/14 08:04:48;;;;;;;4.55;1.50;;;;;;;;;;4978319;28;20540;-87
2022/06/14 08:07:16;;;;;;;5.45;1.58;;;;;;;;;;4977886;28;20085;-87
2022/06/14 08:09:52;;;;;;;5.03;1.60;;;;;;;;;;4980018;28;20461;-90
2022/06/14 08:12:37;;;;;;;3.45;1.25;;;;;;;;;;4977554;28;20023;-86
2022/06/14 08:15:13;;;;;;;4.47;1.35;;;;;;;;;;4975911;28;20496;-87
2022/06/14 08:17:49;;;;;;;7.05;1.58;;;;;;;;;;4977229;28;20027;-87
2022/06/14 08:20:18;;;;;;;3.38;1.33;;;;;;;;;;4974208;28;20515;-87
2022/06/14 08:22:48;;;;;;;5.38;1.60;;;;;;;;;;4967510;28;20031;-87
2022/06/14 08:25:16;;;;;;;3.30;1.55;;;;;;;;;;4979947;28;20147;-86
2022/06/14 08:27:47;;;;;;;3.40;1.70;;;;;;;;;;4977228;28;20038;-87
2022/06/14 08:30:20;;;;;;;3.53;1.45;;;;;;;;;;4977000;28;20122;-86
2022/06/14 08:32:49;;;;;;;2.17;1.30;;;;;;;;;;4969342;28;20023;-87
2022/06/14 08:35:17;;;;;;;5.72;1.60;;;;;;;;;;4977422;28;20019;-88
2022/06/14 08:38:07;;;;;;;4.43;1.50;;;;;;;;;;4976484;28;20433;-87
2022/06/14 08:40:51;;;;;;;5.97;2.00;;;;;;;;;;4972395;28;20027;-87
2022/06/14 08:43:46;;;;;;;3.25;1.63;;;;;;;;;;4967050;28;20046;-87
2022/06/14 08:46:39;;;;;;;8.52;2.00;;;;;;;;;;4971404;28;20035;-86
2022/06/14 08:49:05;;;;;;;5.93;2.20;;;;;;;;;;4972524;28;20101;-86
2022/06/14 08:51:37;;;;;;;9.52;2.28;;;;;;;;;;4968640;28;20505;-86
2022/06/14 08:54:18;;;;;;;4.90;1.67;;;;;;;;;;4976547;28;20405;-86
2022/06/14 08:56:44;;;;;;;;;;;;;;;;;;4967996;28;20035;-87
2022/06/14 08:59:26;;;;;;;5.82;1.90;;;;;;;;;;4976808;28;19941;-86
2022/06/14 09:01:59;;;;;;;6.60;1.60;;;;;;;;;;4972770;28;20031;-86
2022/06/14 09:04:28;;;;;;;6.40;1.98;;;;;;;;;;4957687;28;20541;-87
2022/06/14 09:07:06;;;;;;;4.82;1.77;;;;;;;;;;4965118;28;20482;-86
2022/06/14 09:09:35;;;;;;;5.90;1.90;;;;;;;;;;4975757;28;20624;-86
2022/06/14 09:12:25;;;;;;;8.00;2.08;;;;;;;;;;4977378;28;20029;-86
2022/06/14 09:15:00;;;;;;;8.27;2.10;;;;;;;;;;4966695;28;20113;-86
2022/06/14 09:17:32;;;;;;;4.10;1.70;;;;;;;;;;4973344;28;20038;-86
2022/06/14 09:19:58;;;;;;;8.27;2.40;;;;;;;;;;4969319;28;20062;-86
2022/06/14 09:22:46;;;;;;;8.88;2.00;;;;;;;;;;4973305;28;20030;-86
2022/06/14 09:25:32;;;;;;;6.07;1.80;;;;;;;;;;4965376;28;20113;-86
2022/06/14 09:28:14;;;;;;;4.28;2.00;;;;;;;;;;4969842;28;20047;-86
2022/06/14 09:31:05;;;;;;;6.30;1.67;;;;;;;;;;4981276;28;20043;-85
2022/06/14 09:33:48;;;;;;;7.53;2.20;;;;;;;;;;4967048;28;20062;-85
2022/06/14 09:36:35;;;;;;;5.38;2.00;;;;;;;;;;4979493;28;20584;-86
2022/06/14 09:39:11;;;;;;;6.68;2.30;;;;;;;;;;4979344;28;20023;-85
2022/06/14 09:41:56;;;;;;;7.47;2.90;;;;;;;;;;4978616;28;20054;-85
2022/06/14 09:44:28;;;;;;;7.10;2.10;;;;;;;;;;4993036;28;20155;-84
2022/06/14 09:46:58;;;;;;;4.13;2.03;;;;;;;;;;4979401;28;20030;-85
2022/06/14 09:49:45;;;;;;;3.92;1.45;;;;;;;;;;4980358;28;20027;-86
2022/06/14 09:52:36;;;;;;;6.65;2.03;;;;;;;;;;5010314;23;20151;-90
2022/06/14 10:01:43;;;;;;;5.82;1.75;;;;;;;;;;4898207;29;20471;-92
2022/06/14 14:11:49;;;;;;;7.50;1.88;;;;;;;;;;4955499;29;20072;-89
2022/06/14 15:08:32;;;;;;;5.70;1.77;;;;;;;;;;4957980;29;20050;-88
2022/06/14 15:11:36;;;;;;;2.42;1.73;;;;;;;;;;4956839;29;20032;-87
2022/06/14 15:20:19;;;;;;;;;;;;;;;;;;;;;
2022/06/14 15:22:46;;;;;;;3.33;1.20;;;;;;;;;;4919786;29;20027;-88
2022/06/14 15:25:45;;;;;;;4.80;1.40;;;;;;;;;;4919715;29;20033;-88
2022/06/14 15:28:24;;;;;;;4.57;1.38;;;;;;;;;;4918534;29;20032;-88
2022/06/14 15:31:12;;;;;;;2.97;1.85;;;;;;;;;;4917677;29;20028;-86
2022/06/14 15:33:44;;;;;;;6.30;1.85;;;;;;;;;;4919633;29;20028;-86
2022/06/14 15:36:36;;;;;;;4.22;1.30;;;;;;;;;;4930173;28;20032;-88
2022/06/14 15:39:56;;;;;;;;;;;;;;;;;;;;;
2022/06/14 15:42:39;;;;;;;6.43;2.15;;;;;;;;;;4875652;29;20419;-87
2022/06/14 15:45:20;;;;;;;2.45;1.40;;;;;;;;;;4875906;29;20041;-88
2022/06/14 15:48:30;;;;;;;4.43;1.23;;;;;;;;;;4875684;29;20508;-87
2022/06/14 15:51:00;;;;;;;7.17;1.83;;;;;;;;;;4860631;29;20037;-86
2022/06/14 15:53:41;;;;;;;4.85;2.17;;;;;;;;;;4960133;23;20047;-89
2022/06/14 15:56:26;;;;;;;6.07;1.75;;;;;;;;;;4954183;29;20066;-86
2022/06/14 15:58:55;;;;;;;4.13;1.48;;;;;;;;;;4954753;29;20026;-88
2022/06/14 16:01:25;;;;;;;6.57;2.10;;;;;;;;;;4955913;29;20078;-88
2022/06/14 16:03:59;;;;;;;7.20;2.20;;;;;;;;;;4965068;28;20440;-87
2022/06/14 16:06:31;;;;;;;3.88;1.48;;;;;;;;;;4970855;28;20034;-86
2022/06/14 16:09:00;;;;;;;5.50;1.58;;;;;;;;;;4973453;28;20034;-88
2022/06/14 16:11:27;;;;;;;3.72;1.55;;;;;;;;;;4973550;28;20031;-87
2022/06/14 16:13:56;;;;;;;4.05;1.60;;;;;;;;;;4970419;28;20027;-86
2022/06/14 16:16:25;;;;;;;7.07;1.58;;;;;;;;;;4972671;28;20497;-87
2022/06/14 16:18:52;;;;;;;3.58;1.50;;;;;;;;;;4973833;28;20042;-88
2022/06/14 16:21:35;;;;;;;6.20;1.52;;;;;;;;;;4973789;28;20035;-88
2022/06/14 16:24:02;;;;;;;5.40;3.90;;;;;;;;;;4974016;28;20037;-88
2022/06/14 16:26:43;;;;;;;7.60;1.98;;;;;;;;;;4974827;28;20081;-88
2022/06/14 16:29:18;;;;;;;4.25;1.63;;;;;;;;;;4974406;28;20170;-85
2022/06/14 16:31:53;;;;;;;6.90;1.70;;;;;;;;;;4975020;28;20019;-88
2022/06/14 16:34:36;;;;;;;4.90;1.60;;;;;;;;;;4972678;28;20054;-88
2022/06/14 16:37:13;;;;;;;2.83;1.73;;;;;;;;;;4971633;28;20238;-88
2022/06/14 16:39:54;;;;;;;4.97;1.90;;;;;;;;;;4974987;28;20031;-89
2022/06/14 16:42:33;;;;;;;4.07;1.50;;;;;;;;;;4969592;28;20118;-89
2022/06/14 16:45:05;;;;;;;4.32;1.67;;;;;;;;;;4970002;28;20253;-86
2022/06/14 16:47:39;;;;;;;3.03;1.50;;;;;;;;;;4973171;28;20058;-89
2022/06/14 16:50:24;;;;;;;6.22;1.50;;;;;;;;;;5110678;27;20319;-89
2022/06/14 16:52:50;;;;;;;4.43;1.73;;;;;;;;;;5111570;28;20050;-89
2022/06/14 16:55:16;;;;;;;5.00;1.90;;;;;;;;;;5097045;28;20024;-89
2022/06/14 16:58:00;;;;;;;6.10;1.83;;;;;;;;;;5103780;28;20434;-89
2022/06/14 17:00:39;;;;;;;6.00;1.88;;;;;;;;;;5092704;28;20111;-86
2022/06/14 17:03:08;;;;;;;8.38;2.03;;;;;;;;;;5101258;28;20047;-90
2022/06/14 17:05:37;;;;;;;4.30;1.85;;;;;;;;;;5098013;28;20102;-89
2022/06/14 17:08:14;;;;;;;13.85;3.00;;;;;;;;;;5095218;28;20028;-89
2022/06/14 17:10:46;;;;;;;5.70;1.80;;;;;;;;;;5104206;28;20115;-90
2022/06/14 17:13:18;;;;;;;8.13;1.90;;;;;;;;;;5094814;28;20033;-91
2022/06/14 17:15:50;;;;;;;4.75;1.75;;;;;;;;;;5104973;28;20016;-90
2022/06/14 17:18:30;;;;;;;3.35;1.60;;;;;;;;;;5090414;28;20032;-90
2022/06/14 17:21:09;;;;;;;6.60;2.15;;;;;;;;;;5113157;27;20024;-89
2022/06/14 17:23:38;;;;;;;5.13;1.77;;;;;;;;;;5093100;28;20039;-90
2022/06/14 17:31:46;;;;;;;5.88;2.13;;;;;;;;;;5091538;28;20391;-88
2022/06/14 17:34:24;;;;;;;2.67;1.90;;;;;;;;;;5096053;28;20024;-86
2022/06/14 17:36:50;;;;;;;4.40;1.88;;;;;;;;;;5102013;28;20080;-88
2022/06/14 17:39:19;;;;;;;4.38;1.85;;;;;;;;;;5114007;28;20448;-88
2022/06/14 17:41:54;;;;;;;3.75;1.70;;;;;;;;;;5108301;28;20034;-90
2022/06/14 17:44:23;;;;;;;3.70;1.90;;;;;;;;;;5108522;28;20028;-89
2022/06/14 17:46:50;;;;;;;6.28;2.10;;;;;;;;;;5126858;28;20027;-90
2022/06/14 17:49:39;;;;;;;11.23;2.05;;;;;;;;;;5129058;28;20037;-88
2022/06/14 17:52:13;;;;;;;8.15;1.92;;;;;;;;;;5128842;28;20543;-90
2022/06/14 17:54:44;;;;;;;8.88;2.17;;;;;;;;;;5130148;27;20019;-88
2022/06/14 17:57:12;;;;;;;;;;;;;;;;;;5112599;28;20030;-88
2022/06/14 17:59:38;;;;;;;4.90;1.77;;;;;;;;;;5107316;28;19958;-88
2022/06/14 18:02:12;;;;;;;3.90;1.88;;;;;;;;;;5094330;28;20027;-89
2022/06/14 18:04:44;;;;;;;5.78;1.88;;;;;;;;;;5095059;28;20024;-90
2022/06/14 18:07:11;;;;;;;4.00;1.90;;;;;;;;;;5076272;28;20028;-88
2022/06/14 18:09:46;;;;;;;2.42;1.25;;;;;;;;;;5086496;28;20093;-94
2022/06/14 18:12:12;;;;;;;5.07;2.03;;;;;;;;;;5097702;28;20005;-90
2022/06/14 18:14:44;;;;;;;4.72;2.22;;;;;;;;;;5075907;28;20028;-87
2022/06/14 18:17:27;;;;;;;6.40;1.88;;;;;;;;;;5075327;28;20051;-88
2022/06/14 18:22:59;;;;;;;8.50;2.15;;;;;;;;;;5115932;28;20100;-89
2022/06/14 18:25:45;;;;;;;3.20;1.60;;;;;;;;;;5100162;28;20036;-90
2022/06/14 18:28:21;;;;;;;2.72;1.70;;;;;;;;;;5093317;28;20031;-87
2022/06/14 18:30:47;;;;;;;5.90;1.85;;;;;;;;;;5093983;28;20024;-90
2022/06/14 18:33:21;;;;;;;5.55;1.70;;;;;;;;;;5095347;28;20149;-88
2022/06/14 18:35:53;;;;;;;4.18;1.90;;;;;;;;;;5095136;28;20472;-90
2022/06/14 18:38:51;;;;;;;4.40;2.10;;;;;;;;;;5093852;28;20090;-88
2022/06/14 18:41:35;;;;;;;3.85;2.13;;;;;;;;;;5070757;28;20032;-88
2022/06/14 18:44:06;;;;;;;3.42;1.77;;;;;;;;;;5095354;28;20020;-90
2022/06/14 18:46:35;;;;;;;5.80;1.73;;;;;;;;;;5109635;28;20039;-92
2022/06/14 18:49:01;;;;;;;7.88;2.72;;;;;;;;;;5087794;28;20032;-90
2022/06/14 18:51:29;;;;;;;3.38;1.70;;;;;;;;;;5076067;28;20099;-88
2022/06/14 18:54:00;;;;;;;4.32;1.98;;;;;;;;;;5075151;28;20040;-89
2022/06/14 18:56:29;;;;;;;5.18;1.73;;;;;;;;;;5073577;28;20137;-90
2022/06/14 18:59:00;;;;;;;6.85;2.03;;;;;;;;;;5074654;28;20037;-91
2022/06/14 19:01:27;;;;;;;5.90;2.30;;;;;;;;;;5073091;28;20125;-89
2022/06/14 19:04:11;;;;;;;5.15;1.90;;;;;;;;;;5073421;28;20024;-90
2022/06/14 19:06:56;;;;;;;7.53;2.53;;;;;;;;;;5074979;28;20431;-90
2022/06/14 19:09:22;;;;;;;5.35;2.35;;;;;;;;;;5074665;28;20107;-89
2022/06/14 19:11:53;;;;;;;6.13;1.83;;;;;;;;;;5074789;28;20056;-91
2022/06/14 19:14:32;;;;;;;5.65;2.10;;;;;;;;;;5091507;28;20177;-91
2022/06/14 19:17:17;;;;;;;3.30;1.80;;;;;;;;;;5087298;28;20016;-90
2022/06/14 19:20:09;;;;;;;3.67;2.10;;;;;;;;;;5094348;28;20024;-90
2022/06/14 19:22:42;;;;;;;5.82;1.65;;;;;;;;;;5097465;28;20403;-91
2022/06/14 19:25:23;;;;;;;7.00;2.33;;;;;;;;;;5103921;28;20045;-92
2022/06/14 19:28:17;;;;;;;5.10;2.07;;;;;;;;;;5092728;28;20092;-90
2022/06/14 19:30:45;;;;;;;2.75;1.80;;;;;;;;;;5094599;28;20029;-92
2022/06/14 19:33:22;;;;;;;4.82;1.90;;;;;;;;;;5093363;28;20016;-93
2022/06/14 19:35:59;;;;;;;4.93;2.25;;;;;;;;;;5093887;28;20016;-92
2022/06/14 19:38:44;;;;;;;6.22;1.80;;;;;;;;;;5076549;28;20029;-91
2022/06/14 19:41:19;;;;;;;2.50;2.03;;;;;;;;;;5092825;28;20028;-91
2022/06/14 19:43:46;;;;;;;5.72;2.35;;;;;;;;;;5093261;28;20044;-92
2022/06/14 19:46:21;;;;;;;4.80;1.95;;;;;;;;;;5093578;28;20020;-92
2022/06/14 19:51:35;;;;;;;4.50;2.05;;;;;;;;;;5094219;28;20028;-92
2022/06/14 19:54:02;;;;;;;7.82;2.22;;;;;;;;;;5086840;28;20037;-92
2022/06/14 19:56:30;;;;;;;9.07;2.38;;;;;;;;;;5073764;28;20020;-92
2022/06/14 19:59:03;;;;;;;6.07;2.95;;;;;;;;;;5072775;28;20396;-92
2022/06/14 20:01:34;;;;;;;4.03;2.05;;;;;;;;;;5073017;28;20506;-91
2022/06/14 20:04:12;;;;;;;4.75;2.08;;;;;;;;;;5073229;28;20396;-90
2022/06/14 20:06:38;;;;;;;4.65;2.28;;;;;;;;;;5073119;28;20369;-92
2022/06/14 20:09:23;;;;;;;5.38;2.70;;;;;;;;;;5073112;28;20127;-92
2022/06/14 20:11:53;;;;;;;9.77;2.50;;;;;;;;;;5072505;28;20035;-91
2022/06/14 20:14:20;;;;;;;7.90;2.17;;;;;;;;;;5073473;28;20388;-91
2022/06/14 20:17:33;;;;;;;;;;;;;;;;;;;;;
2022/06/14 20:20:06;;;;;;;4.82;2.13;;;;;;;;;;5096579;28;20027;-92
2022/06/14 20:22:39;;;;;;;8.07;2.10;;;;;;;;;;5113792;28;20024;-90
2022/06/14 20:25:25;;;;;;;4.25;1.75;;;;;;;;;;5115551;28;20161;-91
2022/06/14 20:28:01;;;;;;;3.17;2.17;;;;;;;;;;5124090;28;20027;-93
2022/06/14 20:30:29;;;;;;;5.07;2.13;;;;;;;;;;5118408;28;20022;-90
2022/06/14 20:32:56;;;;;;;12.98;2.47;;;;;;;;;;5115935;28;20028;-94
2022/06/14 20:44:45;;;;;;;4.68;2.22;;;;;;;;;;5072820;28;20111;-91
2022/06/14 20:47:15;;;;;;;4.07;2.03;;;;;;;;;;5111941;28;20032;-91
2022/06/14 20:49:42;;;;;;;4.60;2.38;;;;;;;;;;5112615;28;20047;-90
2022/06/14 20:52:08;;;;;;;3.80;2.10;;;;;;;;;;5114715;28;20023;-91
2022/06/14 20:54:38;;;;;;;7.70;2.50;;;;;;;;;;5113328;28;20020;-91
2022/06/14 20:57:06;;;;;;;3.88;2.17;;;;;;;;;;5092811;28;20033;-89
2022/06/14 20:59:33;;;;;;;6.35;2.40;;;;;;;;;;5071882;28;20028;-90
2022/06/14 21:01:59;;;;;;;6.85;2.63;;;;;;;;;;5072562;28;20048;-90
2022/06/14 21:04:26;;;;;;;7.95;2.72;;;;;;;;;;5071081;28;20456;-89
2022/06/14 21:06:52;;;;;;;7.72;2.80;;;;;;;;;;5070952;28;20033;-90
2022/06/14 21:09:21;;;;;;;4.90;2.72;;;;;;;;;;5072394;28;20166;-90
2022/06/14 21:11:49;;;;;;;7.80;3.58;;;;;;;;;;5072585;28;20028;-91
2022/06/14 21:14:16;;;;;;;6.90;3.60;;;;;;;;;;5070802;28;20029;-91
2022/06/14 21:16:44;;;;;;;7.18;3.38;;;;;;;;;;5070935;28;20107;-90
2022/06/14 21:19:15;;;;;;;9.13;3.35;;;;;;;;;;5083571;28;20035;-90
2022/06/14 21:21:45;;;;;;;6.88;2.72;;;;;;;;;;5070334;28;20056;-91
2022/06/14 21:24:13;;;;;;;3.43;2.23;;;;;;;;;;5084812;28;20032;-90
2022/06/14 21:26:43;;;;;;;7.88;2.42;;;;;;;;;;5090845;28;20294;-91
2022/06/14 21:29:10;;;;;;;4.28;2.45;;;;;;;;;;5090701;28;20456;-91
2022/06/14 21:31:37;;;;;;;7.05;2.65;;;;;;;;;;5090500;28;20081;-92
2022/06/14 21:34:03;;;;;;;8.38;2.70;;;;;;;;;;5092802;28;20100;-91
2022/06/14 21:36:36;;;;;;;7.38;3.10;;;;;;;;;;5078862;28;20075;-90
2022/06/14 21:39:02;;;;;;;3.55;2.00;;;;;;;;;;5103234;28;20031;-93
2022/06/14 21:41:28;;;;;;;4.93;3.00;;;;;;;;;;5117903;28;20082;-91
2022/06/14 21:43:59;;;;;;;6.65;2.33;;;;;;;;;;5094814;28;20024;-91
2022/06/14 21:46:35;;;;;;;7.50;3.10;;;;;;;;;;5104324;28;20490;-91
2022/06/14 21:49:03;;;;;;;3.83;2.05;;;;;;;;;;5103845;28;20032;-92
2022/06/14 21:51:29;;;;;;;3.38;1.90;;;;;;;;;;5095010;28;20440;-90
2022/06/14 21:53:58;;;;;;;10.07;3.30;;;;;;;;;;5097745;28;20016;-93
2022/06/14 21:56:25;;;;;;;4.28;2.28;;;;;;;;;;5099564;28;20020;-93
2022/06/14 21:59:02;;;;;;;5.68;2.25;;;;;;;;;;5076906;28;20039;-92
2022/06/14 22:01:28;;;;;;;6.55;2.20;;;;;;;;;;5078156;28;20029;-91
2022/06/14 22:04:01;;;;;;;6.75;2.45;;;;;;;;;;5076779;28;20050;-91
2022/06/14 22:06:29;;;;;;;5.50;2.58;;;;;;;;;;5096282;28;20119;-91
2022/06/14 22:08:55;;;;;;;5.50;2.60;;;;;;;;;;5096953;28;20128;-92
2022/06/14 22:11:22;;;;;;;4.97;2.50;;;;;;;;;;5095575;28;20522;-92
2022/06/14 22:13:49;;;;;;;10.77;2.33;;;;;;;;;;5096575;28;20361;-92
2022/06/14 22:16:19;;;;;;;8.05;2.50;;;;;;;;;;5095698;28;20024;-92
2022/06/14 22:18:46;;;;;;;3.42;2.05;;;;;;;;;;5095941;28;20119;-92
2022/06/14 22:21:13;;;;;;;3.30;2.30;;;;;;;;;;5075018;28;20040;-92
2022/06/14 22:26:24;;;;;;;4.28;2.40;;;;;;;;;;5076924;28;20044;-93
2022/06/14 22:28:52;;;;;;;4.97;2.20;;;;;;;;;;5077309;28;20028;-93
2022/06/14 22:31:18;;;;;;;3.88;2.10;;;;;;;;;;5078195;28;20040;-94
2022/06/14 22:33:45;;;;;;;6.63;2.25;;;;;;;;;;5096981;28;20066;-94
2022/06/14 22:36:10;;;;;;;4.15;2.58;;;;;;;;;;5095064;28;20096;-95
2022/06/14 22:38:37;;;;;;;3.88;2.08;;;;;;;;;;5075075;28;20024;-93